createdAt,value
2022-09-14T00:00:23.213Z,49.90
2022-09-14T00:02:24.940Z,49.90
2022-09-14T00:04:26.794Z,49.80
2022-09-14T00:06:30.337Z,49.90
2022-09-14T00:08:32.166Z,49.90
2022-09-14T00:10:33.989Z,49.90
2022-09-14T00:12:35.977Z,49.80
2022-09-14T00:14:38.822Z,49.80
2022-09-14T00:16:41.973Z,49.70
2022-09-14T00:18:44.135Z,49.70
2022-09-14T00:20:45.715Z,49.80
2022-09-14T00:22:47.690Z,49.80
2022-09-14T00:24:49.255Z,49.90
2022-09-14T00:26:51.865Z,49.80
2022-09-14T00:28:57.507Z,49.90
2022-09-14T00:30:59.212Z,49.90
2022-09-14T00:33:00.815Z,49.90
2022-09-14T00:35:02.964Z,49.90
2022-09-14T00:37:04.684Z,50.00
2022-09-14T00:39:07.166Z,50.00
2022-09-14T00:41:16.306Z,49.90
2022-09-14T00:43:17.951Z,49.90
2022-09-14T00:45:22.293Z,49.90
2022-09-14T00:47:24.168Z,49.90
2022-09-14T00:49:31.423Z,50.20
2022-09-14T00:51:34.374Z,50.20
2022-09-14T00:53:36.162Z,50.20
2022-09-14T00:55:37.777Z,50.20
2022-09-14T00:57:44.104Z,50.10
2022-09-14T00:59:48.401Z,50.00
2022-09-14T01:01:50.731Z,50.00
2022-09-14T01:03:52.503Z,50.10
2022-09-14T01:06:18.927Z,50.00
2022-09-14T01:08:45.315Z,50.00
2022-09-14T01:11:11.510Z,49.90
2022-09-14T01:13:33.531Z,49.90
2022-09-14T01:16:01.597Z,49.80
2022-09-14T01:18:15.384Z,49.90
2022-09-14T01:20:27.892Z,49.90
2022-09-14T01:22:54.460Z,49.90
2022-09-14T01:25:10.139Z,50.00
2022-09-14T01:27:36.229Z,50.10
2022-09-14T01:29:53.437Z,50.40
2022-09-14T01:32:04.391Z,50.90
2022-09-14T01:34:11.367Z,50.60
2022-09-14T01:36:14.988Z,50.30
2022-09-14T01:38:41.981Z,50.20
2022-09-14T01:40:47.926Z,50.20
2022-09-14T01:42:56.710Z,50.20
2022-09-14T01:45:01.670Z,50.10
2022-09-14T01:47:09.675Z,50.20
2022-09-14T01:49:19.722Z,50.20
2022-09-14T01:51:29.288Z,50.20
2022-09-14T01:54:05.192Z,50.20
2022-09-14T01:56:20.436Z,50.20
2022-09-14T01:58:41.826Z,50.30
2022-09-14T02:00:46.132Z,50.40
2022-09-14T02:02:53.669Z,50.30
2022-09-14T02:05:06.636Z,50.20
2022-09-14T02:07:08.691Z,50.40
2022-09-14T02:09:13.621Z,50.40
2022-09-14T02:11:15.234Z,51.10
2022-09-14T02:13:17.486Z,51.10
2022-09-14T02:15:19.830Z,50.50
2022-09-14T02:17:22.500Z,50.40
2022-09-14T02:19:26.535Z,50.60
2022-09-14T02:21:30.804Z,50.60
2022-09-14T02:23:34.754Z,50.60
2022-09-14T02:25:36.804Z,50.70
2022-09-14T02:27:38.487Z,50.70
2022-09-14T02:29:40.099Z,50.80
2022-09-14T02:31:54.990Z,50.80
2022-09-14T02:34:24.398Z,50.70
2022-09-14T02:36:40.879Z,50.70
2022-09-14T02:38:42.460Z,50.80
2022-09-14T02:40:55.066Z,50.70
2022-09-14T02:43:22.321Z,50.70
2022-09-14T02:45:50.438Z,50.80
2022-09-14T02:48:04.333Z,50.50
2022-09-14T02:50:20.678Z,50.80
2022-09-14T02:52:44.473Z,51.00
2022-09-14T02:55:20.324Z,50.80
2022-09-14T02:57:21.917Z,50.90
2022-09-14T02:59:23.524Z,50.60
2022-09-14T03:01:25.298Z,50.80
2022-09-14T03:03:26.935Z,50.80
2022-09-14T03:05:28.817Z,51.10
2022-09-14T03:07:30.409Z,51.00
2022-09-14T03:09:32.108Z,51.00
2022-09-14T03:11:33.717Z,51.00
2022-09-14T03:13:36.292Z,50.70
2022-09-14T03:15:38.080Z,50.80
2022-09-14T03:17:39.652Z,50.90
2022-09-14T03:19:41.285Z,51.10
2022-09-14T03:21:42.869Z,51.00
2022-09-14T03:23:46.971Z,50.90
2022-09-14T03:25:48.562Z,51.10
2022-09-14T03:27:56.278Z,51.00
2022-09-14T03:29:57.862Z,51.10
2022-09-14T03:31:59.451Z,51.10
2022-09-14T03:34:02.179Z,50.90
2022-09-14T03:36:14.775Z,51.00
2022-09-14T03:38:16.374Z,51.00
2022-09-14T03:40:21.573Z,51.00
2022-09-14T03:42:23.464Z,50.80
2022-09-14T03:44:25.961Z,51.00
2022-09-14T03:46:27.653Z,51.10
2022-09-14T03:48:29.797Z,50.80
2022-09-14T03:50:31.708Z,51.00
2022-09-14T03:52:34.431Z,50.90
2022-09-14T03:54:36.019Z,50.90
2022-09-14T03:56:37.844Z,50.90
2022-09-14T03:58:39.525Z,51.00
2022-09-14T04:00:41.281Z,51.00
2022-09-14T04:02:42.992Z,51.10
2022-09-14T04:04:44.677Z,51.00
2022-09-14T04:06:47.444Z,51.00
2022-09-14T04:08:49.222Z,51.10
2022-09-14T04:10:51.192Z,51.10
2022-09-14T04:12:52.781Z,50.90
2022-09-14T04:14:54.415Z,51.10
2022-09-14T04:16:56.008Z,51.00
2022-09-14T04:18:57.859Z,51.10
2022-09-14T04:21:05.892Z,51.10
2022-09-14T04:23:09.531Z,51.10
2022-09-14T04:25:11.547Z,51.10
2022-09-14T04:27:13.484Z,51.10
2022-09-14T04:29:15.167Z,51.10
2022-09-14T04:31:16.941Z,51.00
2022-09-14T04:33:18.565Z,51.30
2022-09-14T04:35:20.143Z,51.30
2022-09-14T04:37:21.747Z,51.70
2022-09-14T04:39:23.480Z,51.60
2022-09-14T04:41:25.738Z,51.90
2022-09-14T04:43:27.572Z,52.10
2022-09-14T04:45:29.872Z,52.90
2022-09-14T04:47:31.448Z,52.30
2022-09-14T04:49:33.072Z,52.30
2022-09-14T04:51:36.078Z,52.50
2022-09-14T04:53:39.794Z,52.60
2022-09-14T04:55:41.372Z,52.60
2022-09-14T04:57:42.976Z,52.60
2022-09-14T04:59:44.625Z,52.60
2022-09-14T05:01:50.321Z,52.70
2022-09-14T05:03:52.907Z,53.00
2022-09-14T05:05:54.735Z,53.40
2022-09-14T05:07:56.570Z,53.40
2022-09-14T05:09:58.477Z,53.30
2022-09-14T05:12:00.334Z,53.20
2022-09-14T05:14:03.305Z,53.40
2022-09-14T05:16:24.228Z,53.80
2022-09-14T05:18:25.989Z,53.60
2022-09-14T05:20:27.611Z,53.40
2022-09-14T05:22:29.298Z,53.40
2022-09-14T05:24:31.232Z,54.00
2022-09-14T05:26:33.462Z,53.80
2022-09-14T05:28:36.092Z,53.70
2022-09-14T05:30:40.875Z,53.80
2022-09-14T05:32:42.497Z,53.70
2022-09-14T05:34:44.185Z,54.00
2022-09-14T05:36:45.972Z,53.80
2022-09-14T05:38:47.641Z,54.20
2022-09-14T05:40:53.882Z,54.40
2022-09-14T05:42:55.531Z,54.80
2022-09-14T05:44:57.267Z,55.00
2022-09-14T05:46:58.888Z,55.60
2022-09-14T05:49:00.510Z,56.20
2022-09-14T05:51:07.562Z,57.30
2022-09-14T05:53:09.283Z,57.60
2022-09-14T05:55:10.880Z,58.30
2022-09-14T05:57:12.517Z,58.70
2022-09-14T05:59:14.377Z,58.70
2022-09-14T06:01:22.834Z,58.80
2022-09-14T06:03:24.807Z,59.20
2022-09-14T06:05:26.490Z,59.70
2022-09-14T06:07:28.109Z,59.60
2022-09-14T06:09:33.056Z,59.70
2022-09-14T06:11:38.297Z,60.10
2022-09-14T06:13:39.998Z,60.40
2022-09-14T06:15:41.624Z,60.60
2022-09-14T06:17:43.245Z,61.00
2022-09-14T06:19:44.819Z,61.00
2022-09-14T06:21:46.435Z,61.00
2022-09-14T06:23:49.599Z,61.30
2022-09-14T06:25:54.269Z,61.40
2022-09-14T06:27:55.939Z,61.60
2022-09-14T06:29:57.547Z,61.70
2022-09-14T06:31:59.225Z,61.80
2022-09-14T06:34:01.812Z,61.90
2022-09-14T06:36:09.683Z,62.10
2022-09-14T06:38:11.303Z,62.10
2022-09-14T06:40:13.044Z,62.30
2022-09-14T06:42:14.719Z,62.40
2022-09-14T06:44:16.308Z,62.40
2022-09-14T06:46:20.893Z,62.60
2022-09-14T06:48:22.607Z,62.50
2022-09-14T06:50:24.888Z,62.80
2022-09-14T06:52:28.631Z,62.90
2022-09-14T06:54:33.345Z,62.90
2022-09-14T06:56:37.872Z,63.10
2022-09-14T06:58:39.625Z,63.00
2022-09-14T07:00:41.478Z,63.30
2022-09-14T07:02:43.470Z,63.50
2022-09-14T07:04:45.238Z,63.50
2022-09-14T07:06:49.544Z,63.20
2022-09-14T07:08:52.363Z,63.60
2022-09-14T07:10:58.778Z,63.40
2022-09-14T07:13:00.475Z,63.90
2022-09-14T07:15:02.112Z,64.00
2022-09-14T07:17:04.165Z,64.10
2022-09-14T07:19:09.422Z,64.00
2022-09-14T07:21:14.001Z,64.00
2022-09-14T07:23:15.764Z,64.80
2022-09-14T07:25:17.357Z,64.30
2022-09-14T07:27:19.052Z,64.20
2022-09-14T07:29:21.759Z,64.20
2022-09-14T07:31:26.447Z,64.30
2022-09-14T07:33:28.722Z,64.50
2022-09-14T07:35:30.995Z,64.60
2022-09-14T07:37:32.650Z,64.70
2022-09-14T07:39:34.251Z,64.50
2022-09-14T07:41:36.694Z,64.60
2022-09-14T07:43:38.345Z,64.40
2022-09-14T07:45:40.016Z,64.50
2022-09-14T07:47:41.654Z,64.50
2022-09-14T07:49:43.335Z,64.30
2022-09-14T07:51:45.539Z,64.50
2022-09-14T07:53:47.170Z,64.50
2022-09-14T07:55:48.823Z,64.60
2022-09-14T07:57:56.546Z,64.60
2022-09-14T07:59:58.617Z,65.00
2022-09-14T08:02:00.467Z,64.80
2022-09-14T08:04:05.438Z,64.70
2022-09-14T08:06:16.013Z,64.50
2022-09-14T08:08:17.858Z,64.80
2022-09-14T08:10:19.492Z,64.80
2022-09-14T08:12:21.108Z,64.90
2022-09-14T08:14:23.269Z,65.50
2022-09-14T08:16:26.484Z,64.60
2022-09-14T08:18:30.146Z,64.60
2022-09-14T08:20:31.906Z,64.50
2022-09-14T08:22:33.486Z,64.20
2022-09-14T08:24:35.145Z,64.30
2022-09-14T08:26:36.746Z,64.30
2022-09-14T08:28:38.782Z,64.20
2022-09-14T08:30:41.338Z,64.40
2022-09-14T08:32:42.994Z,64.60
2022-09-14T08:34:44.604Z,64.70
2022-09-14T08:36:47.267Z,64.60
2022-09-14T08:38:48.987Z,64.60
2022-09-14T08:40:51.451Z,64.60
2022-09-14T08:42:56.313Z,64.60
2022-09-14T08:45:05.095Z,64.70
2022-09-14T08:47:19.157Z,64.70
2022-09-14T08:50:02.950Z,64.70
2022-09-14T08:52:05.356Z,64.60
2022-09-14T08:54:09.947Z,64.30
2022-09-14T08:56:13.576Z,64.50
2022-09-14T08:58:15.158Z,64.40
2022-09-14T09:00:21.688Z,64.20
2022-09-14T09:02:38.558Z,64.20
2022-09-14T09:04:58.073Z,64.10
2022-09-14T09:07:19.992Z,63.90
2022-09-14T09:09:31.149Z,63.90
2022-09-14T09:11:39.957Z,63.80
2022-09-14T09:13:43.800Z,63.70
2022-09-14T09:15:48.391Z,63.60
2022-09-14T09:18:16.124Z,63.30
2022-09-14T09:20:23.469Z,63.30
2022-09-14T09:22:29.351Z,63.20
2022-09-14T09:24:37.259Z,62.90
2022-09-14T09:26:39.586Z,62.70
2022-09-14T09:28:49.473Z,62.80
2022-09-14T09:30:53.039Z,62.70
2022-09-14T09:32:55.460Z,62.70
2022-09-14T09:34:57.666Z,62.40
2022-09-14T09:37:00.887Z,62.30
2022-09-14T09:39:05.278Z,62.30
2022-09-14T09:41:14.250Z,62.80
2022-09-14T09:43:28.979Z,62.20
2022-09-14T09:45:57.458Z,62.50
2022-09-14T09:48:09.639Z,62.20
2022-09-14T09:50:14.530Z,62.10
2022-09-14T09:52:17.349Z,62.00
2022-09-14T09:54:23.382Z,62.10
2022-09-14T09:56:33.297Z,61.70
2022-09-14T09:58:39.100Z,61.70
2022-09-14T10:00:40.873Z,61.60
2022-09-14T10:02:42.583Z,61.60
2022-09-14T10:05:18.360Z,61.30
2022-09-14T10:07:22.350Z,61.40
2022-09-14T10:09:29.343Z,61.30
2022-09-14T10:11:36.459Z,61.20
2022-09-14T10:13:40.219Z,61.40
2022-09-14T10:15:43.160Z,61.40
2022-09-14T10:18:07.375Z,61.30
2022-09-14T10:20:21.701Z,61.10
2022-09-14T10:22:31.104Z,61.00
2022-09-14T10:24:35.617Z,60.90
2022-09-14T10:26:37.679Z,61.00
2022-09-14T10:28:45.811Z,61.10
2022-09-14T10:30:57.340Z,61.20
2022-09-14T10:33:05.238Z,61.00
2022-09-14T10:35:15.304Z,61.10
2022-09-14T10:37:50.561Z,61.00
2022-09-14T10:40:13.847Z,60.90
2022-09-14T10:42:38.843Z,61.00
2022-09-14T10:45:28.192Z,60.90
2022-09-14T10:47:47.576Z,60.90
2022-09-14T10:50:10.679Z,60.70
2022-09-14T10:52:24.273Z,60.80
2022-09-14T10:54:34.689Z,60.70
2022-09-14T10:57:11.021Z,60.70
2022-09-14T10:59:27.714Z,60.50
2022-09-14T11:01:29.365Z,60.60
2022-09-14T11:04:05.931Z,60.60
2022-09-14T11:06:23.575Z,60.60
2022-09-14T11:08:46.443Z,60.40
2022-09-14T11:11:10.692Z,60.50
2022-09-14T11:13:24.866Z,60.40
2022-09-14T11:15:37.360Z,60.10
2022-09-14T11:17:50.967Z,60.40
2022-09-14T11:19:59.557Z,60.30
2022-09-14T11:22:17.033Z,60.00
2022-09-14T11:24:37.477Z,59.90
2022-09-14T11:26:49.311Z,59.80
2022-09-14T11:28:59.456Z,59.60
2022-09-14T11:31:04.537Z,59.60
2022-09-14T11:33:29.063Z,59.70
2022-09-14T11:35:55.868Z,59.40
2022-09-14T11:38:02.167Z,59.30
2022-09-14T11:40:15.802Z,59.20
2022-09-14T11:42:35.534Z,59.00
2022-09-14T11:44:42.537Z,58.90
2022-09-14T11:47:07.275Z,58.70
2022-09-14T11:49:30.933Z,58.50
2022-09-14T11:52:00.673Z,58.20
2022-09-14T11:54:02.352Z,58.10
2022-09-14T11:56:05.108Z,58.00
2022-09-14T11:58:11.761Z,57.90
2022-09-14T12:00:25.235Z,57.90
2022-09-14T12:02:27.473Z,57.80
2022-09-14T12:04:29.129Z,57.70
2022-09-14T12:06:30.664Z,57.70
2022-09-14T12:08:35.280Z,57.40
2022-09-14T12:11:09.009Z,57.60
2022-09-14T12:13:10.645Z,57.60
2022-09-14T12:15:23.060Z,57.60
2022-09-14T12:17:43.138Z,57.40
2022-09-14T12:19:46.480Z,57.50
2022-09-14T12:21:48.303Z,57.60
2022-09-14T12:23:53.124Z,57.50
2022-09-14T12:25:56.965Z,57.50
2022-09-14T12:27:58.657Z,57.40
2022-09-14T12:30:00.643Z,57.40
2022-09-14T12:32:05.231Z,57.30
2022-09-14T12:34:25.404Z,57.40
2022-09-14T12:36:26.960Z,57.60
2022-09-14T12:38:31.583Z,57.60
2022-09-14T12:40:37.285Z,57.60
2022-09-14T12:42:38.975Z,57.70
2022-09-14T12:44:42.204Z,57.70
2022-09-14T12:46:43.894Z,57.70
2022-09-14T12:48:48.601Z,57.50
2022-09-14T12:50:54.282Z,57.50
2022-09-14T12:53:05.015Z,57.60
2022-09-14T12:55:12.640Z,57.60
2022-09-14T12:57:34.247Z,57.70
2022-09-14T12:59:42.205Z,57.80
2022-09-14T13:02:01.747Z,58.20
2022-09-14T13:04:05.208Z,58.80
2022-09-14T13:06:12.223Z,59.10
2022-09-14T13:08:20.596Z,59.50
2022-09-14T13:10:28.697Z,60.00
2022-09-14T13:12:41.655Z,60.60
2022-09-14T13:14:54.491Z,61.20
2022-09-14T13:16:58.627Z,61.20
2022-09-14T13:19:03.138Z,61.00
2022-09-14T13:21:25.065Z,61.10
2022-09-14T13:23:36.980Z,61.40
2022-09-14T13:25:39.027Z,61.40
2022-09-14T13:27:40.773Z,61.40
2022-09-14T13:29:42.464Z,61.30
2022-09-14T13:31:45.224Z,61.70
2022-09-14T13:33:53.061Z,61.40
2022-09-14T13:36:00.895Z,61.10
2022-09-14T13:38:09.891Z,61.40
2022-09-14T13:40:12.389Z,61.30
2022-09-14T13:42:14.871Z,61.00
2022-09-14T13:44:17.111Z,61.60
2022-09-14T13:46:20.581Z,61.10
2022-09-14T13:48:23.085Z,61.30
2022-09-14T13:50:28.005Z,61.30
2022-09-14T13:52:59.914Z,61.30
2022-09-14T13:55:08.057Z,61.40
2022-09-14T13:57:18.272Z,61.30
2022-09-14T13:59:22.299Z,61.30
2022-09-14T14:01:28.701Z,61.30
2022-09-14T14:03:37.880Z,61.20
2022-09-14T14:05:43.570Z,61.20
2022-09-14T14:07:45.831Z,61.10
2022-09-14T14:09:51.381Z,61.10
2022-09-14T14:11:55.114Z,61.00
2022-09-14T14:13:57.706Z,60.90
2022-09-14T14:16:21.042Z,60.80
2022-09-14T14:18:43.119Z,60.80
2022-09-14T14:20:44.714Z,60.80
2022-09-14T14:22:57.196Z,60.70
2022-09-14T14:25:13.222Z,60.60
2022-09-14T14:27:36.435Z,60.60
2022-09-14T14:29:38.090Z,60.50
2022-09-14T14:31:39.729Z,60.50
2022-09-14T14:33:47.059Z,60.40
2022-09-14T14:35:54.310Z,60.50
2022-09-14T14:37:56.427Z,60.50
2022-09-14T14:39:58.183Z,60.50
2022-09-14T14:42:01.438Z,60.40
2022-09-14T14:44:03.459Z,60.50
2022-09-14T14:46:07.017Z,60.50
2022-09-14T14:48:10.879Z,60.50
2022-09-14T14:50:17.413Z,60.50
2022-09-14T14:52:19.574Z,60.50
2022-09-14T14:54:21.229Z,60.40
2022-09-14T14:56:23.148Z,60.50
2022-09-14T14:58:25.177Z,60.30
2022-09-14T15:00:28.130Z,60.40
2022-09-14T15:02:29.809Z,60.30
2022-09-14T15:04:31.433Z,60.20
2022-09-14T15:06:33.368Z,60.10
2022-09-14T15:08:34.959Z,60.10
2022-09-14T15:10:36.601Z,60.00
2022-09-14T15:12:38.190Z,60.00
2022-09-14T15:14:39.762Z,60.00
2022-09-14T15:16:42.406Z,59.90
2022-09-14T15:18:44.221Z,59.90
2022-09-14T15:20:45.819Z,59.90
2022-09-14T15:22:48.337Z,59.90
2022-09-14T15:24:50.112Z,59.80
2022-09-14T15:26:52.822Z,59.90
2022-09-14T15:28:54.558Z,59.90
2022-09-14T15:30:57.168Z,60.00
2022-09-14T15:32:58.791Z,59.80
2022-09-14T15:35:00.510Z,59.80
2022-09-14T15:37:02.205Z,59.80
2022-09-14T15:39:04.895Z,59.80
2022-09-14T15:41:10.698Z,59.70
2022-09-14T15:43:12.343Z,59.70
2022-09-14T15:45:14.724Z,60.20
2022-09-14T15:47:16.606Z,59.80
2022-09-14T15:49:20.933Z,59.50
2022-09-14T15:51:22.661Z,59.80
2022-09-14T15:53:24.290Z,59.70
2022-09-14T15:55:25.923Z,60.00
2022-09-14T15:57:27.541Z,60.00
2022-09-14T15:59:29.416Z,60.00
2022-09-14T16:01:31.288Z,59.80
2022-09-14T16:03:32.922Z,60.30
2022-09-14T16:05:38.730Z,59.90
2022-09-14T16:07:40.507Z,59.90
2022-09-14T16:09:42.379Z,59.80
2022-09-14T16:11:44.434Z,59.80
2022-09-14T16:13:46.426Z,59.50
2022-09-14T16:15:48.025Z,59.50
2022-09-14T16:17:53.595Z,60.20
2022-09-14T16:19:55.311Z,59.60
2022-09-14T16:21:57.320Z,59.60
2022-09-14T16:24:00.610Z,59.40
2022-09-14T16:26:15.509Z,59.40
2022-09-14T16:28:17.113Z,59.40
2022-09-14T16:30:18.811Z,59.10
2022-09-14T16:32:22.066Z,59.50
2022-09-14T16:34:26.204Z,59.50
2022-09-14T16:36:30.735Z,59.60
2022-09-14T16:38:32.773Z,59.70
2022-09-14T16:40:34.422Z,59.70
2022-09-14T16:42:36.092Z,59.80
2022-09-14T16:44:37.699Z,59.90
2022-09-14T16:46:39.314Z,59.50
2022-09-14T16:48:46.099Z,60.20
2022-09-14T16:50:52.875Z,60.30
2022-09-14T16:52:54.504Z,60.20
2022-09-14T16:54:56.426Z,60.00
2022-09-14T16:56:59.283Z,60.00
2022-09-14T16:59:01.831Z,59.80
2022-09-14T17:01:22.325Z,59.80
2022-09-14T17:03:29.786Z,60.90
2022-09-14T17:05:33.114Z,60.60
2022-09-14T17:07:34.728Z,60.60
2022-09-14T17:09:36.374Z,60.60
2022-09-14T17:11:39.660Z,60.10
2022-09-14T17:13:43.524Z,60.00
2022-09-14T17:15:45.109Z,60.00
2022-09-14T17:17:46.768Z,60.00
2022-09-14T17:19:48.356Z,60.50
2022-09-14T17:21:50.888Z,60.80
2022-09-14T17:23:52.977Z,60.70
2022-09-14T17:25:55.604Z,60.90
2022-09-14T17:27:57.221Z,60.80
2022-09-14T17:29:58.800Z,60.70
2022-09-14T17:32:00.524Z,60.80
2022-09-14T17:34:03.777Z,60.70
2022-09-14T17:36:07.060Z,60.70
2022-09-14T17:38:08.668Z,60.60
2022-09-14T17:40:11.015Z,60.50
2022-09-14T17:42:12.636Z,60.30
2022-09-14T17:44:15.880Z,60.20
2022-09-14T17:46:17.691Z,60.30
2022-09-14T17:48:19.904Z,60.20
2022-09-14T17:50:23.455Z,60.40
2022-09-14T17:52:25.328Z,60.30
2022-09-14T17:54:27.001Z,60.30
2022-09-14T17:56:29.690Z,60.20
2022-09-14T17:58:31.322Z,60.10
2022-09-14T18:00:32.977Z,60.10
2022-09-14T18:02:34.747Z,60.00
2022-09-14T18:04:36.491Z,60.20
2022-09-14T18:06:41.885Z,60.30
2022-09-14T18:08:43.628Z,60.20
2022-09-14T18:10:45.484Z,60.20
2022-09-14T18:12:48.346Z,60.10
2022-09-14T18:14:49.952Z,60.00
2022-09-14T18:16:51.635Z,60.00
2022-09-14T18:18:53.326Z,60.10
2022-09-14T18:20:54.947Z,60.10
2022-09-14T18:22:56.532Z,60.10
2022-09-14T18:24:58.145Z,60.00
2022-09-14T18:26:59.905Z,60.00
2022-09-14T18:29:03.498Z,59.80
2022-09-14T18:31:08.291Z,59.80
2022-09-14T18:33:10.196Z,59.70
2022-09-14T18:35:13.660Z,59.70
2022-09-14T18:37:15.300Z,59.70
2022-09-14T18:39:17.006Z,59.60
2022-09-14T18:41:19.772Z,59.70
2022-09-14T18:43:21.432Z,59.60
2022-09-14T18:45:23.119Z,59.50
2022-09-14T18:47:25.217Z,59.50
2022-09-14T18:49:26.948Z,59.50
2022-09-14T18:51:31.966Z,59.50
2022-09-14T18:53:33.917Z,59.50
2022-09-14T18:55:35.542Z,59.50
2022-09-14T18:57:37.179Z,59.50
2022-09-14T18:59:38.791Z,59.50
2022-09-14T19:01:42.556Z,59.50
2022-09-14T19:03:44.516Z,59.50
2022-09-14T19:05:46.098Z,59.50
2022-09-14T19:07:47.795Z,59.40
2022-09-14T19:09:49.401Z,59.30
2022-09-14T19:11:51.051Z,59.40
2022-09-14T19:14:01.562Z,59.40
2022-09-14T19:16:21.192Z,59.90
2022-09-14T19:18:22.868Z,59.50
2022-09-14T19:20:24.572Z,59.50
2022-09-14T19:22:28.252Z,59.70
2022-09-14T19:24:33.095Z,59.60
2022-09-14T19:26:45.356Z,59.50
2022-09-14T19:28:47.754Z,59.40
2022-09-14T19:30:49.997Z,59.50
2022-09-14T19:32:51.634Z,59.40
2022-09-14T19:34:54.210Z,59.40
2022-09-14T19:36:56.137Z,59.40
2022-09-14T19:39:01.687Z,59.60
2022-09-14T19:41:05.807Z,59.70
2022-09-14T19:43:07.473Z,59.70
2022-09-14T19:45:09.859Z,59.60
2022-09-14T19:47:11.551Z,59.60
2022-09-14T19:49:31.408Z,59.60
2022-09-14T19:51:33.038Z,59.50
2022-09-14T19:53:36.363Z,59.60
2022-09-14T19:55:38.156Z,59.40
2022-09-14T19:57:39.801Z,59.40
2022-09-14T19:59:41.469Z,59.40
2022-09-14T20:01:44.028Z,59.30
2022-09-14T20:03:46.544Z,59.20
2022-09-14T20:05:48.623Z,59.90
2022-09-14T20:07:50.284Z,59.30
2022-09-14T20:09:51.865Z,59.20
2022-09-14T20:11:53.826Z,60.00
2022-09-14T20:13:57.194Z,59.30
2022-09-14T20:15:58.985Z,59.20
2022-09-14T20:18:00.588Z,59.10
2022-09-14T20:20:02.491Z,59.10
2022-09-14T20:22:04.142Z,59.10
2022-09-14T20:24:16.683Z,59.10
2022-09-14T20:26:19.182Z,59.10
2022-09-14T20:28:25.489Z,58.90
2022-09-14T20:30:27.278Z,58.80
2022-09-14T20:32:30.046Z,58.80
2022-09-14T20:34:31.809Z,58.70
2022-09-14T20:36:33.769Z,58.70
2022-09-14T20:38:36.063Z,58.70
2022-09-14T20:40:37.698Z,58.80
2022-09-14T20:42:39.348Z,58.70
2022-09-14T20:44:40.971Z,58.70
2022-09-14T20:46:44.716Z,58.80
2022-09-14T20:48:48.055Z,58.80
2022-09-14T20:50:53.253Z,58.80
2022-09-14T20:52:54.860Z,58.80
2022-09-14T20:54:56.459Z,58.70
2022-09-14T20:57:03.539Z,58.70
2022-09-14T20:59:09.478Z,58.70
2022-09-14T21:01:19.338Z,58.80
2022-09-14T21:03:22.592Z,58.70
2022-09-14T21:05:24.239Z,58.80
2022-09-14T21:07:26.136Z,58.70
2022-09-14T21:09:29.023Z,58.80
2022-09-14T21:11:30.973Z,58.80
2022-09-14T21:13:33.404Z,58.80
2022-09-14T21:15:35.038Z,58.90
2022-09-14T21:17:36.718Z,58.80
2022-09-14T21:19:38.359Z,58.90
2022-09-14T21:21:40.616Z,58.70
2022-09-14T21:23:42.551Z,58.80
2022-09-14T21:25:44.153Z,58.80
2022-09-14T21:27:45.741Z,58.90
2022-09-14T21:29:48.972Z,59.00
2022-09-14T21:31:51.373Z,58.90
2022-09-14T21:33:55.234Z,58.90
2022-09-14T21:36:11.664Z,59.00
2022-09-14T21:38:13.323Z,58.80
2022-09-14T21:40:18.210Z,59.00
2022-09-14T21:42:20.053Z,59.60
2022-09-14T21:44:22.041Z,58.90
2022-09-14T21:46:24.635Z,58.90
2022-09-14T21:48:27.341Z,59.00
2022-09-14T21:50:28.916Z,58.90
2022-09-14T21:52:31.078Z,58.80
2022-09-14T21:54:32.689Z,58.80
2022-09-14T21:56:36.781Z,58.90
2022-09-14T21:58:38.567Z,58.80
2022-09-14T22:00:40.504Z,58.80
2022-09-14T22:02:42.126Z,58.70
2022-09-14T22:04:43.831Z,58.80
2022-09-14T22:06:46.138Z,58.80
2022-09-14T22:08:49.097Z,58.70
2022-09-14T22:10:50.904Z,58.80
2022-09-14T22:12:53.499Z,58.70
2022-09-14T22:14:55.089Z,58.70
2022-09-14T22:16:57.101Z,58.70
2022-09-14T22:19:00.481Z,58.60
2022-09-14T22:21:02.201Z,58.70
2022-09-14T22:23:03.834Z,58.60
2022-09-14T22:25:05.958Z,58.60
2022-09-14T22:27:09.584Z,58.70
2022-09-14T22:29:12.829Z,58.60
2022-09-14T22:31:15.174Z,58.60
2022-09-14T22:33:16.821Z,58.60
2022-09-14T22:35:18.427Z,58.60
2022-09-14T22:37:20.012Z,58.70
2022-09-14T22:39:21.770Z,58.90
2022-09-14T22:41:25.892Z,58.80
2022-09-14T22:43:28.348Z,58.80
2022-09-14T22:45:29.936Z,58.80
2022-09-14T22:47:31.616Z,58.90
2022-09-14T22:49:33.207Z,58.80
2022-09-14T22:51:34.812Z,58.80
2022-09-14T22:53:37.259Z,58.70
2022-09-14T22:55:40.624Z,58.90
2022-09-14T22:57:42.219Z,58.90
2022-09-14T22:59:43.825Z,58.90
2022-09-14T23:01:45.580Z,58.90
2022-09-14T23:03:47.292Z,59.00
2022-09-14T23:05:55.545Z,59.00
2022-09-14T23:07:57.444Z,59.00
2022-09-14T23:09:59.797Z,59.00
2022-09-14T23:12:01.606Z,58.90
2022-09-14T23:14:03.663Z,59.00
2022-09-14T23:16:19.854Z,59.00
2022-09-14T23:18:21.452Z,59.00
2022-09-14T23:20:23.213Z,59.00
2022-09-14T23:22:24.848Z,59.10
2022-09-14T23:24:26.537Z,59.10
2022-09-14T23:26:31.573Z,59.10
2022-09-14T23:28:33.585Z,59.10
2022-09-14T23:30:35.275Z,59.00
2022-09-14T23:32:36.918Z,59.10
2022-09-14T23:34:38.524Z,59.10
2022-09-14T23:36:40.493Z,59.20
2022-09-14T23:38:42.122Z,59.10
2022-09-14T23:40:43.936Z,59.20
2022-09-14T23:42:46.367Z,59.20
2022-09-14T23:44:47.932Z,59.10
2022-09-14T23:46:49.543Z,59.20
2022-09-14T23:48:51.302Z,59.10
2022-09-14T23:51:00.611Z,59.10
2022-09-14T23:53:02.341Z,59.00
2022-09-14T23:55:05.023Z,59.00
2022-09-14T23:57:06.640Z,59.10
2022-09-14T23:59:11.619Z,59.20
